sensor_id;sensor_type;location;lat;lon;timestamp;pressure;altitude;pressure_sealevel;temperature;humidity
63691;BME280;49837;57.280;27.070;2023-07-16T00:00:49;100359.23;;;10.41;95.99
63691;BME280;49837;57.280;27.070;2023-07-16T00:01:47;100357.91;;;10.37;96.11
63691;BME280;49837;57.280;27.070;2023-07-16T00:02:48;100355.26;;;10.36;96.2
63691;BME280;49837;57.280;27.070;2023-07-16T00:03:48;100360.36;;;10.32;96.36
63691;BME280;49837;57.280;27.070;2023-07-16T00:04:49;100356.94;;;10.29;96.2
63691;BME280;49837;57.280;27.070;2023-07-16T00:05:50;100354.28;;;10.26;96.05
63691;BME280;49837;57.280;27.070;2023-07-16T00:06:50;100357.61;;;10.25;95.91
63691;BME280;49837;57.280;27.070;2023-07-16T00:07:50;100359.35;;;10.25;95.99
63691;BME280;49837;57.280;27.070;2023-07-16T00:08:50;100360.83;;;10.27;96.14
63691;BME280;49837;57.280;27.070;2023-07-16T00:09:51;100359.19;;;10.25;96.07
63691;BME280;49837;57.280;27.070;2023-07-16T00:10:51;100359.09;;;10.26;96.2
63691;BME280;49837;57.280;27.070;2023-07-16T00:11:51;100359.04;;;10.24;96.28
63691;BME280;49837;57.280;27.070;2023-07-16T00:12:52;100357.31;;;10.2;96.35
63691;BME280;49837;57.280;27.070;2023-07-16T00:13:52;100358.34;;;10.16;96.5
63691;BME280;49837;57.280;27.070;2023-07-16T00:14:53;100356.77;;;10.12;96.65
63691;BME280;49837;57.280;27.070;2023-07-16T00:15:53;100355.9;;;10.07;96.77
63691;BME280;49837;57.280;27.070;2023-07-16T00:16:54;100358.79;;;9.98;96.65
63691;BME280;49837;57.280;27.070;2023-07-16T00:17:54;100355.2;;;9.91;95.91
63691;BME280;49837;57.280;27.070;2023-07-16T00:18:54;100355.36;;;9.88;95.57
63691;BME280;49837;57.280;27.070;2023-07-16T00:19:55;100356.72;;;9.87;95.61
63691;BME280;49837;57.280;27.070;2023-07-16T00:20:56;100353.84;;;9.85;95.6
63691;BME280;49837;57.280;27.070;2023-07-16T00:21:56;100354.74;;;9.89;95.99
63691;BME280;49837;57.280;27.070;2023-07-16T00:22:56;100353.16;;;9.9;96.4
63691;BME280;49837;57.280;27.070;2023-07-16T00:23:56;100355.27;;;9.95;96.27
63691;BME280;49837;57.280;27.070;2023-07-16T00:24:57;100353.77;;;9.95;96.17
63691;BME280;49837;57.280;27.070;2023-07-16T00:25:57;100354.44;;;9.92;96.17
63691;BME280;49837;57.280;27.070;2023-07-16T00:26:58;100351.48;;;9.9;96.16
63691;BME280;49837;57.280;27.070;2023-07-16T00:27:58;100355.12;;;9.91;96.24
63691;BME280;49837;57.280;27.070;2023-07-16T00:28:59;100354.58;;;9.93;96.27
63691;BME280;49837;57.280;27.070;2023-07-16T00:29:59;100354.56;;;9.91;96.34
63691;BME280;49837;57.280;27.070;2023-07-16T00:30:59;100356.0;;;9.92;96.61
63691;BME280;49837;57.280;27.070;2023-07-16T00:32:00;100355.58;;;9.93;96.62
63691;BME280;49837;57.280;27.070;2023-07-16T00:33:00;100354.62;;;9.9;96.77
63691;BME280;49837;57.280;27.070;2023-07-16T00:34:01;100357.81;;;9.89;96.96
63691;BME280;49837;57.280;27.070;2023-07-16T00:35:01;100358.79;;;9.9;96.98
63691;BME280;49837;57.280;27.070;2023-07-16T00:36:01;100363.48;;;9.9;97.1
63691;BME280;49837;57.280;27.070;2023-07-16T00:37:02;100361.2;;;9.87;97.2
63691;BME280;49837;57.280;27.070;2023-07-16T00:38:02;100364.05;;;9.83;97.26
63691;BME280;49837;57.280;27.070;2023-07-16T00:39:03;100357.62;;;9.8;96.84
63691;BME280;49837;57.280;27.070;2023-07-16T00:40:04;100362.93;;;9.74;96.25
63691;BME280;49837;57.280;27.070;2023-07-16T00:41:04;100364.02;;;9.7;96.09
63691;BME280;49837;57.280;27.070;2023-07-16T00:42:04;100363.26;;;9.6;96.23
63691;BME280;49837;57.280;27.070;2023-07-16T00:43:04;100365.25;;;9.53;96.47
63691;BME280;49837;57.280;27.070;2023-07-16T00:44:05;100366.05;;;9.51;96.89
63691;BME280;49837;57.280;27.070;2023-07-16T00:45:11;100366.52;;;9.51;97.12
63691;BME280;49837;57.280;27.070;2023-07-16T00:46:09;100367.55;;;9.5;97.18
63691;BME280;49837;57.280;27.070;2023-07-16T00:47:09;100365.98;;;9.47;96.98
63691;BME280;49837;57.280;27.070;2023-07-16T00:48:09;100363.73;;;9.42;96.47
63691;BME280;49837;57.280;27.070;2023-07-16T00:49:10;100368.36;;;9.4;95.82
63691;BME280;49837;57.280;27.070;2023-07-16T00:50:11;100367.09;;;9.36;95.99
63691;BME280;49837;57.280;27.070;2023-07-16T00:51:11;100367.72;;;9.36;95.88
63691;BME280;49837;57.280;27.070;2023-07-16T00:52:16;100363.72;;;9.36;95.66
63691;BME280;49837;57.280;27.070;2023-07-16T00:53:16;100363.62;;;9.36;95.52
63691;BME280;49837;57.280;27.070;2023-07-16T00:54:16;100366.77;;;9.37;95.8
63691;BME280;49837;57.280;27.070;2023-07-16T00:55:16;100365.84;;;9.41;96.11
63691;BME280;49837;57.280;27.070;2023-07-16T00:56:17;100364.48;;;9.47;96.34
63691;BME280;49837;57.280;27.070;2023-07-16T00:57:17;100368.23;;;9.46;96.66
63691;BME280;49837;57.280;27.070;2023-07-16T00:58:18;100370.64;;;9.49;96.86
63691;BME280;49837;57.280;27.070;2023-07-16T00:59:18;100370.8;;;9.5;96.9
63691;BME280;49837;57.280;27.070;2023-07-16T01:00:18;100375.44;;;9.5;97.07
63691;BME280;49837;57.280;27.070;2023-07-16T01:01:19;100374.89;;;9.49;97.07
63691;BME280;49837;57.280;27.070;2023-07-16T01:02:19;100376.73;;;9.5;97.05
63691;BME280;49837;57.280;27.070;2023-07-16T01:03:20;100375.94;;;9.47;96.94
63691;BME280;49837;57.280;27.070;2023-07-16T01:04:20;100375.48;;;9.49;96.9
63691;BME280;49837;57.280;27.070;2023-07-16T01:05:21;100374.19;;;9.52;96.65
63691;BME280;49837;57.280;27.070;2023-07-16T01:06:26;100375.33;;;9.56;96.37
63691;BME280;49837;57.280;27.070;2023-07-16T01:07:25;100373.55;;;9.57;96.23
63691;BME280;49837;57.280;27.070;2023-07-16T01:09:25;100373.86;;;9.55;96.2
63691;BME280;49837;57.280;27.070;2023-07-16T01:10:27;100374.77;;;9.55;96.32
63691;BME280;49837;57.280;27.070;2023-07-16T01:11:27;100377.25;;;9.52;96.36
63691;BME280;49837;57.280;27.070;2023-07-16T01:12:27;100379.61;;;9.48;96.63
63691;BME280;49837;57.280;27.070;2023-07-16T01:13:28;100378.58;;;9.45;96.82
63691;BME280;49837;57.280;27.070;2023-07-16T01:14:28;100378.64;;;9.42;96.75
63691;BME280;49837;57.280;27.070;2023-07-16T01:15:28;100380.75;;;9.37;96.83
63691;BME280;49837;57.280;27.070;2023-07-16T01:16:28;100379.28;;;9.32;96.94
63691;BME280;49837;57.280;27.070;2023-07-16T01:17:28;100379.4;;;9.3;97.04
63691;BME280;49837;57.280;27.070;2023-07-16T01:18:29;100384.75;;;9.29;97.05
63691;BME280;49837;57.280;27.070;2023-07-16T01:19:29;100380.39;;;9.26;97.21
63691;BME280;49837;57.280;27.070;2023-07-16T01:20:30;100387.14;;;9.26;97.27
63691;BME280;49837;57.280;27.070;2023-07-16T01:30:52;100382.02;;;9.28;98.14
63691;BME280;49837;57.280;27.070;2023-07-16T01:31:52;100380.8;;;9.3;98.06
63691;BME280;49837;57.280;27.070;2023-07-16T01:32:52;100385.47;;;9.22;97.61
63691;BME280;49837;57.280;27.070;2023-07-16T01:33:53;100385.2;;;9.15;97.33
63691;BME280;49837;57.280;27.070;2023-07-16T01:34:53;100385.34;;;9.12;97.15
63691;BME280;49837;57.280;27.070;2023-07-16T01:35:54;100382.86;;;9.11;97.18
63691;BME280;49837;57.280;27.070;2023-07-16T01:36:54;100385.52;;;9.12;97.26
63691;BME280;49837;57.280;27.070;2023-07-16T01:37:54;100382.54;;;9.14;97.49
63691;BME280;49837;57.280;27.070;2023-07-16T01:38:55;100383.48;;;9.13;97.23
63691;BME280;49837;57.280;27.070;2023-07-16T01:39:55;100385.88;;;9.1;96.75
63691;BME280;49837;57.280;27.070;2023-07-16T01:40:55;100382.2;;;9.06;96.38
63691;BME280;49837;57.280;27.070;2023-07-16T01:41:56;100385.27;;;9.04;96.51
63691;BME280;49837;57.280;27.070;2023-07-16T01:42:56;100384.47;;;9.01;96.63
63691;BME280;49837;57.280;27.070;2023-07-16T01:43:56;100386.03;;;8.99;96.81
63691;BME280;49837;57.280;27.070;2023-07-16T01:44:57;100385.77;;;8.98;96.87
63691;BME280;49837;57.280;27.070;2023-07-16T01:45:57;100386.95;;;8.98;96.79
63691;BME280;49837;57.280;27.070;2023-07-16T01:47:09;100384.07;;;8.96;97.0
63691;BME280;49837;57.280;27.070;2023-07-16T01:49:07;100387.77;;;8.94;97.4
63691;BME280;49837;57.280;27.070;2023-07-16T01:50:08;100384.75;;;8.95;97.46
63691;BME280;49837;57.280;27.070;2023-07-16T01:51:08;100387.95;;;8.98;97.47
63691;BME280;49837;57.280;27.070;2023-07-16T01:52:09;100389.41;;;9.0;97.41
63691;BME280;49837;57.280;27.070;2023-07-16T01:53:08;100388.28;;;8.97;97.3
63691;BME280;49837;57.280;27.070;2023-07-16T01:54:09;100392.45;;;8.93;97.34
63691;BME280;49837;57.280;27.070;2023-07-16T01:55:09;100395.99;;;8.95;97.41
63691;BME280;49837;57.280;27.070;2023-07-16T01:56:10;100396.55;;;8.96;97.42
63691;BME280;49837;57.280;27.070;2023-07-16T01:57:10;100396.14;;;8.96;97.45
63691;BME280;49837;57.280;27.070;2023-07-16T01:58:10;100396.14;;;8.96;97.53
63691;BME280;49837;57.280;27.070;2023-07-16T01:59:11;100398.28;;;8.97;97.66
63691;BME280;49837;57.280;27.070;2023-07-16T02:00:12;100396.22;;;8.97;97.54
63691;BME280;49837;57.280;27.070;2023-07-16T02:01:12;100399.06;;;8.96;97.55
63691;BME280;49837;57.280;27.070;2023-07-16T02:02:12;100402.55;;;8.95;97.62
63691;BME280;49837;57.280;27.070;2023-07-16T02:03:12;100403.45;;;8.95;97.58
63691;BME280;49837;57.280;27.070;2023-07-16T02:04:13;100401.58;;;8.94;97.52
63691;BME280;49837;57.280;27.070;2023-07-16T02:05:14;100404.62;;;8.95;97.25
63691;BME280;49837;57.280;27.070;2023-07-16T02:06:13;100401.3;;;8.95;97.24
63691;BME280;49837;57.280;27.070;2023-07-16T02:07:14;100405.36;;;8.96;97.26
63691;BME280;49837;57.280;27.070;2023-07-16T02:08:14;100402.0;;;8.98;97.04
63691;BME280;49837;57.280;27.070;2023-07-16T02:09:15;100403.12;;;8.95;97.02
63691;BME280;49837;57.280;27.070;2023-07-16T02:10:15;100405.62;;;8.91;97.28
63691;BME280;49837;57.280;27.070;2023-07-16T02:11:15;100407.3;;;8.91;97.37
63691;BME280;49837;57.280;27.070;2023-07-16T02:12:16;100405.52;;;8.88;97.51
63691;BME280;49837;57.280;27.070;2023-07-16T02:13:16;100406.76;;;8.89;97.64
63691;BME280;49837;57.280;27.070;2023-07-16T02:14:17;100406.92;;;8.89;97.68
63691;BME280;49837;57.280;27.070;2023-07-16T02:15:17;100406.83;;;8.89;97.61
63691;BME280;49837;57.280;27.070;2023-07-16T02:16:17;100408.2;;;8.92;97.46
63691;BME280;49837;57.280;27.070;2023-07-16T02:17:18;100405.95;;;8.95;97.43
63691;BME280;49837;57.280;27.070;2023-07-16T02:18:18;100406.02;;;9.0;97.32
63691;BME280;49837;57.280;27.070;2023-07-16T02:19:19;100408.5;;;9.02;96.99
63691;BME280;49837;57.280;27.070;2023-07-16T02:20:19;100408.41;;;9.02;96.97
63691;BME280;49837;57.280;27.070;2023-07-16T02:21:20;100409.5;;;9.02;96.88
63691;BME280;49837;57.280;27.070;2023-07-16T02:22:21;100407.52;;;9.01;96.88
63691;BME280;49837;57.280;27.070;2023-07-16T02:23:20;100406.36;;;9.01;97.04
63691;BME280;49837;57.280;27.070;2023-07-16T02:24:21;100404.94;;;9.02;97.26
63691;BME280;49837;57.280;27.070;2023-07-16T02:25:21;100406.98;;;9.03;97.25
63691;BME280;49837;57.280;27.070;2023-07-16T02:26:22;100407.49;;;8.99;96.76
63691;BME280;49837;57.280;27.070;2023-07-16T02:27:22;100407.23;;;8.98;96.46
63691;BME280;49837;57.280;27.070;2023-07-16T02:28:22;100406.09;;;9.01;96.46
63691;BME280;49837;57.280;27.070;2023-07-16T02:29:23;100405.55;;;9.0;96.48
63691;BME280;49837;57.280;27.070;2023-07-16T02:30:23;100404.55;;;9.0;96.82
63691;BME280;49837;57.280;27.070;2023-07-16T02:31:24;100403.88;;;8.99;96.98
63691;BME280;49837;57.280;27.070;2023-07-16T02:32:24;100404.85;;;8.98;96.65
63691;BME280;49837;57.280;27.070;2023-07-16T02:33:24;100399.64;;;8.96;96.5
63691;BME280;49837;57.280;27.070;2023-07-16T02:34:25;100405.08;;;8.97;96.55
63691;BME280;49837;57.280;27.070;2023-07-16T02:35:25;100405.49;;;8.98;96.5
63691;BME280;49837;57.280;27.070;2023-07-16T02:36:26;100403.77;;;8.97;96.01
63691;BME280;49837;57.280;27.070;2023-07-16T02:37:26;100406.45;;;8.96;95.92
63691;BME280;49837;57.280;27.070;2023-07-16T02:38:26;100404.58;;;8.97;96.09
63691;BME280;49837;57.280;27.070;2023-07-16T02:39:27;100406.3;;;8.99;96.23
63691;BME280;49837;57.280;27.070;2023-07-16T02:40:27;100404.83;;;8.99;96.25
63691;BME280;49837;57.280;27.070;2023-07-16T02:41:28;100404.19;;;8.98;96.17
63691;BME280;49837;57.280;27.070;2023-07-16T02:42:29;100404.64;;;8.99;96.19
63691;BME280;49837;57.280;27.070;2023-07-16T02:43:28;100402.67;;;9.02;96.01
63691;BME280;49837;57.280;27.070;2023-07-16T02:44:29;100401.59;;;9.03;95.92
63691;BME280;49837;57.280;27.070;2023-07-16T02:45:29;100409.02;;;9.05;95.98
63691;BME280;49837;57.280;27.070;2023-07-16T02:46:30;100410.25;;;9.06;96.01
63691;BME280;49837;57.280;27.070;2023-07-16T02:47:30;100409.81;;;9.07;96.15
63691;BME280;49837;57.280;27.070;2023-07-16T02:48:31;100411.72;;;9.08;96.22
63691;BME280;49837;57.280;27.070;2023-07-16T02:49:31;100411.08;;;9.11;96.19
63691;BME280;49837;57.280;27.070;2023-07-16T02:50:35;100407.33;;;9.11;96.18
63691;BME280;49837;57.280;27.070;2023-07-16T02:51:32;100408.14;;;9.12;96.21
63691;BME280;49837;57.280;27.070;2023-07-16T02:52:33;100407.64;;;9.12;95.96
63691;BME280;49837;57.280;27.070;2023-07-16T02:53:33;100404.98;;;9.12;95.95
63691;BME280;49837;57.280;27.070;2023-07-16T02:54:35;100407.78;;;9.13;95.96
63691;BME280;49837;57.280;27.070;2023-07-16T02:55:37;100405.98;;;9.15;95.97
63691;BME280;49837;57.280;27.070;2023-07-16T02:56:34;100410.05;;;9.2;95.97
63691;BME280;49837;57.280;27.070;2023-07-16T02:57:35;100409.64;;;9.25;95.83
63691;BME280;49837;57.280;27.070;2023-07-16T02:58:35;100412.52;;;9.26;95.6
63691;BME280;49837;57.280;27.070;2023-07-16T02:59:35;100412.02;;;9.26;95.52
63691;BME280;49837;57.280;27.070;2023-07-16T03:00:36;100413.45;;;9.29;95.59
63691;BME280;49837;57.280;27.070;2023-07-16T03:01:36;100418.62;;;9.32;95.64
63691;BME280;49837;57.280;27.070;2023-07-16T03:02:37;100420.17;;;9.34;95.67
63691;BME280;49837;57.280;27.070;2023-07-16T03:03:37;100416.97;;;9.37;95.63
63691;BME280;49837;57.280;27.070;2023-07-16T03:04:38;100419.81;;;9.35;95.62
63691;BME280;49837;57.280;27.070;2023-07-16T03:05:38;100419.68;;;9.37;95.67
63691;BME280;49837;57.280;27.070;2023-07-16T03:06:38;100420.41;;;9.43;95.6
63691;BME280;49837;57.280;27.070;2023-07-16T03:07:39;100420.34;;;9.46;95.5
63691;BME280;49837;57.280;27.070;2023-07-16T03:08:39;100419.27;;;9.5;95.49
63691;BME280;49837;57.280;27.070;2023-07-16T03:09:39;100421.17;;;9.54;95.63
63691;BME280;49837;57.280;27.070;2023-07-16T03:10:40;100416.69;;;9.61;95.36
63691;BME280;49837;57.280;27.070;2023-07-16T03:11:40;100418.5;;;9.62;95.08
63691;BME280;49837;57.280;27.070;2023-07-16T03:12:41;100414.55;;;9.63;95.05
63691;BME280;49837;57.280;27.070;2023-07-16T03:13:41;100415.98;;;9.66;94.97
63691;BME280;49837;57.280;27.070;2023-07-16T03:14:42;100417.0;;;9.71;94.77
63691;BME280;49837;57.280;27.070;2023-07-16T03:15:42;100415.44;;;9.77;94.72
63691;BME280;49837;57.280;27.070;2023-07-16T03:16:42;100415.39;;;9.82;94.67
63691;BME280;49837;57.280;27.070;2023-07-16T03:17:43;100417.98;;;9.86;94.56
63691;BME280;49837;57.280;27.070;2023-07-16T03:18:44;100421.66;;;9.89;94.42
63691;BME280;49837;57.280;27.070;2023-07-16T03:19:44;100419.63;;;9.93;94.37
63691;BME280;49837;57.280;27.070;2023-07-16T03:20:44;100417.2;;;9.97;94.31
63691;BME280;49837;57.280;27.070;2023-07-16T03:21:44;100420.55;;;10.01;94.1
63691;BME280;49837;57.280;27.070;2023-07-16T03:22:45;100422.33;;;10.06;93.79
63691;BME280;49837;57.280;27.070;2023-07-16T03:23:45;100418.92;;;10.09;93.53
63691;BME280;49837;57.280;27.070;2023-07-16T03:24:46;100418.66;;;10.2;93.27
63691;BME280;49837;57.280;27.070;2023-07-16T03:25:46;100418.1;;;10.3;92.9
63691;BME280;49837;57.280;27.070;2023-07-16T03:26:46;100412.45;;;10.32;92.64
63691;BME280;49837;57.280;27.070;2023-07-16T03:27:47;100416.41;;;10.31;92.45
63691;BME280;49837;57.280;27.070;2023-07-16T03:28:47;100414.95;;;10.32;92.4
63691;BME280;49837;57.280;27.070;2023-07-16T03:29:48;100417.14;;;10.35;92.28
63691;BME280;49837;57.280;27.070;2023-07-16T03:30:49;100413.95;;;10.36;92.17
63691;BME280;49837;57.280;27.070;2023-07-16T03:31:49;100414.92;;;10.41;91.99
63691;BME280;49837;57.280;27.070;2023-07-16T03:32:49;100411.39;;;10.46;91.88
63691;BME280;49837;57.280;27.070;2023-07-16T03:33:50;100413.52;;;10.58;91.86
63691;BME280;49837;57.280;27.070;2023-07-16T03:34:50;100412.47;;;10.69;91.41
63691;BME280;49837;57.280;27.070;2023-07-16T03:35:51;100416.84;;;10.8;91.06
63691;BME280;49837;57.280;27.070;2023-07-16T03:36:51;100416.68;;;10.86;90.78
63691;BME280;49837;57.280;27.070;2023-07-16T03:37:51;100413.83;;;10.96;90.53
63691;BME280;49837;57.280;27.070;2023-07-16T03:38:52;100414.59;;;11.08;90.29
63691;BME280;49837;57.280;27.070;2023-07-16T03:39:52;100416.92;;;11.12;89.76
63691;BME280;49837;57.280;27.070;2023-07-16T03:40:53;100416.47;;;11.15;89.65
63691;BME280;49837;57.280;27.070;2023-07-16T03:41:53;100416.19;;;11.19;89.57
63691;BME280;49837;57.280;27.070;2023-07-16T03:42:53;100418.95;;;11.22;89.41
63691;BME280;49837;57.280;27.070;2023-07-16T03:43:54;100420.38;;;11.3;89.47
63691;BME280;49837;57.280;27.070;2023-07-16T03:44:54;100420.25;;;11.38;88.97
63691;BME280;49837;57.280;27.070;2023-07-16T03:45:55;100419.22;;;11.48;88.79
63691;BME280;49837;57.280;27.070;2023-07-16T03:46:55;100420.02;;;11.57;88.72
63691;BME280;49837;57.280;27.070;2023-07-16T03:47:55;100414.39;;;11.72;88.5
63691;BME280;49837;57.280;27.070;2023-07-16T03:48:56;100417.88;;;11.92;87.97
63691;BME280;49837;57.280;27.070;2023-07-16T03:49:56;100415.37;;;12.16;87.28
63691;BME280;49837;57.280;27.070;2023-07-16T03:50:57;100416.55;;;12.49;85.79
63691;BME280;49837;57.280;27.070;2023-07-16T03:51:57;100418.98;;;12.98;86.48
63691;BME280;49837;57.280;27.070;2023-07-16T03:52:59;100414.02;;;13.47;85.27
63691;BME280;49837;57.280;27.070;2023-07-16T03:53:58;100414.02;;;14.01;83.5
63691;BME280;49837;57.280;27.070;2023-07-16T03:54:59;100413.69;;;14.4;81.13
63691;BME280;49837;57.280;27.070;2023-07-16T03:55:59;100412.72;;;14.74;80.25
63691;BME280;49837;57.280;27.070;2023-07-16T03:56:59;100416.7;;;15.08;78.37
63691;BME280;49837;57.280;27.070;2023-07-16T03:58:00;100417.42;;;15.24;76.64
63691;BME280;49837;57.280;27.070;2023-07-16T03:59:00;100420.94;;;15.19;78.09
63691;BME280;49837;57.280;27.070;2023-07-16T04:00:04;100416.16;;;15.05;77.5
63691;BME280;49837;57.280;27.070;2023-07-16T04:01:02;100418.86;;;14.63;77.87
63691;BME280;49837;57.280;27.070;2023-07-16T04:02:03;100419.92;;;14.49;78.29
63691;BME280;49837;57.280;27.070;2023-07-16T04:03:03;100420.4;;;14.33;79.04
63691;BME280;49837;57.280;27.070;2023-07-16T04:04:03;100419.28;;;14.16;79.09
63691;BME280;49837;57.280;27.070;2023-07-16T04:05:05;100419.52;;;14.06;79.87
63691;BME280;49837;57.280;27.070;2023-07-16T04:06:06;100419.66;;;14.01;79.66
63691;BME280;49837;57.280;27.070;2023-07-16T04:07:05;100420.56;;;13.78;80.56
63691;BME280;49837;57.280;27.070;2023-07-16T04:08:05;100421.28;;;13.7;80.63
63691;BME280;49837;57.280;27.070;2023-07-16T04:09:06;100424.37;;;13.81;81.41
63691;BME280;49837;57.280;27.070;2023-07-16T04:10:07;100422.95;;;13.94;81.66
63691;BME280;49837;57.280;27.070;2023-07-16T04:11:07;100420.7;;;14.04;81.09
63691;BME280;49837;57.280;27.070;2023-07-16T04:12:07;100421.05;;;13.97;80.16
63691;BME280;49837;57.280;27.070;2023-07-16T04:13:08;100421.55;;;13.98;80.79
63691;BME280;49837;57.280;27.070;2023-07-16T04:14:08;100421.88;;;14.0;80.32
63691;BME280;49837;57.280;27.070;2023-07-16T04:15:09;100421.06;;;13.91;80.44
63691;BME280;49837;57.280;27.070;2023-07-16T04:16:09;100416.77;;;13.87;80.89
63691;BME280;49837;57.280;27.070;2023-07-16T04:17:10;100416.33;;;13.92;80.89
63691;BME280;49837;57.280;27.070;2023-07-16T04:18:10;100417.81;;;14.05;81.38
63691;BME280;49837;57.280;27.070;2023-07-16T04:19:10;100418.44;;;14.17;82.16
63691;BME280;49837;57.280;27.070;2023-07-16T04:20:11;100419.03;;;14.27;81.71
63691;BME280;49837;57.280;27.070;2023-07-16T04:21:11;100420.62;;;14.25;81.58
63691;BME280;49837;57.280;27.070;2023-07-16T04:22:12;100419.59;;;14.32;82.14
63691;BME280;49837;57.280;27.070;2023-07-16T04:23:12;100419.7;;;14.37;82.38
63691;BME280;49837;57.280;27.070;2023-07-16T04:24:13;100421.48;;;14.48;82.42
63691;BME280;49837;57.280;27.070;2023-07-16T04:25:13;100418.48;;;14.6;82.03
63691;BME280;49837;57.280;27.070;2023-07-16T04:26:14;100414.39;;;14.67;81.7
63691;BME280;49837;57.280;27.070;2023-07-16T04:27:14;100415.99;;;14.72;81.47
63691;BME280;49837;57.280;27.070;2023-07-16T04:28:14;100414.3;;;14.8;81.77
63691;BME280;49837;57.280;27.070;2023-07-16T04:29:15;100414.89;;;14.87;81.71
63691;BME280;49837;57.280;27.070;2023-07-16T04:30:15;100412.89;;;14.89;80.92
63691;BME280;49837;57.280;27.070;2023-07-16T04:31:16;100415.45;;;14.96;81.77
63691;BME280;49837;57.280;27.070;2023-07-16T04:32:16;100412.86;;;15.02;81.65
63691;BME280;49837;57.280;27.070;2023-07-16T04:33:17;100414.57;;;14.93;80.22
63691;BME280;49837;57.280;27.070;2023-07-16T04:34:17;100415.8;;;14.85;81.51
63691;BME280;49837;57.280;27.070;2023-07-16T04:35:18;100414.11;;;14.89;80.68
63691;BME280;49837;57.280;27.070;2023-07-16T04:36:18;100414.31;;;14.95;81.57
63691;BME280;49837;57.280;27.070;2023-07-16T04:37:19;100415.88;;;15.05;81.48
63691;BME280;49837;57.280;27.070;2023-07-16T04:38:19;100417.05;;;15.09;80.28
63691;BME280;49837;57.280;27.070;2023-07-16T04:39:19;100413.47;;;15.05;80.28
63691;BME280;49837;57.280;27.070;2023-07-16T04:40:20;100414.56;;;15.13;80.88
63691;BME280;49837;57.280;27.070;2023-07-16T04:41:20;100414.05;;;15.19;81.7
63691;BME280;49837;57.280;27.070;2023-07-16T04:42:21;100407.73;;;15.3;81.54
63691;BME280;49837;57.280;27.070;2023-07-16T04:43:21;100406.97;;;15.32;80.97
63691;BME280;49837;57.280;27.070;2023-07-16T04:44:22;100406.86;;;15.38;81.57
63691;BME280;49837;57.280;27.070;2023-07-16T04:45:22;100410.12;;;15.51;81.2
63691;BME280;49837;57.280;27.070;2023-07-16T04:46:23;100409.95;;;15.62;80.73
63691;BME280;49837;57.280;27.070;2023-07-16T04:47:23;100411.09;;;15.72;80.18
63691;BME280;49837;57.280;27.070;2023-07-16T04:48:24;100411.22;;;15.8;80.47
63691;BME280;49837;57.280;27.070;2023-07-16T04:49:24;100406.52;;;15.91;80.78
63691;BME280;49837;57.280;27.070;2023-07-16T04:50:24;100407.55;;;15.96;79.97
63691;BME280;49837;57.280;27.070;2023-07-16T04:51:25;100404.2;;;16.04;79.58
63691;BME280;49837;57.280;27.070;2023-07-16T04:52:25;100404.98;;;16.1;78.94
63691;BME280;49837;57.280;27.070;2023-07-16T04:53:26;100405.97;;;16.18;77.98
63691;BME280;49837;57.280;27.070;2023-07-16T04:54:26;100409.77;;;16.25;78.4
63691;BME280;49837;57.280;27.070;2023-07-16T04:55:27;100408.83;;;16.27;78.5
63691;BME280;49837;57.280;27.070;2023-07-16T04:56:27;100405.98;;;16.38;78.89
63691;BME280;49837;57.280;27.070;2023-07-16T04:57:28;100409.31;;;16.44;78.35
63691;BME280;49837;57.280;27.070;2023-07-16T04:58:28;100406.62;;;16.52;78.55
63691;BME280;49837;57.280;27.070;2023-07-16T04:59:29;100410.53;;;16.58;78.17
63691;BME280;49837;57.280;27.070;2023-07-16T05:00:29;100407.83;;;16.58;77.88
63691;BME280;49837;57.280;27.070;2023-07-16T05:01:30;100409.64;;;16.62;78.52
63691;BME280;49837;57.280;27.070;2023-07-16T05:02:30;100408.78;;;16.71;78.0
63691;BME280;49837;57.280;27.070;2023-07-16T05:03:31;100406.22;;;16.75;77.7
63691;BME280;49837;57.280;27.070;2023-07-16T05:04:31;100407.95;;;16.85;77.33
63691;BME280;49837;57.280;27.070;2023-07-16T05:05:31;100407.24;;;16.99;76.94
63691;BME280;49837;57.280;27.070;2023-07-16T05:06:32;100410.41;;;17.12;77.3
63691;BME280;49837;57.280;27.070;2023-07-16T05:07:32;100410.93;;;17.18;75.82
63691;BME280;49837;57.280;27.070;2023-07-16T05:08:33;100414.91;;;17.25;75.61
63691;BME280;49837;57.280;27.070;2023-07-16T05:09:33;100414.45;;;17.35;75.42
63691;BME280;49837;57.280;27.070;2023-07-16T05:10:34;100414.97;;;17.38;75.06
63691;BME280;49837;57.280;27.070;2023-07-16T05:11:34;100413.45;;;17.38;75.39
63691;BME280;49837;57.280;27.070;2023-07-16T05:12:34;100414.71;;;17.44;75.2
63691;BME280;49837;57.280;27.070;2023-07-16T05:13:35;100413.75;;;17.53;75.96
63691;BME280;49837;57.280;27.070;2023-07-16T05:14:44;100413.31;;;17.61;75.08
63691;BME280;49837;57.280;27.070;2023-07-16T05:15:37;100414.66;;;17.64;75.32
63691;BME280;49837;57.280;27.070;2023-07-16T05:16:37;100411.84;;;17.71;74.54
63691;BME280;49837;57.280;27.070;2023-07-16T05:17:38;100415.23;;;17.72;73.67
63691;BME280;49837;57.280;27.070;2023-07-16T05:18:38;100413.94;;;17.82;73.39
63691;BME280;49837;57.280;27.070;2023-07-16T05:19:38;100414.22;;;17.93;73.17
63691;BME280;49837;57.280;27.070;2023-07-16T05:20:39;100414.02;;;18.02;74.0
63691;BME280;49837;57.280;27.070;2023-07-16T05:21:39;100413.89;;;18.07;72.87
63691;BME280;49837;57.280;27.070;2023-07-16T05:22:39;100416.08;;;18.2;71.36
63691;BME280;49837;57.280;27.070;2023-07-16T05:23:41;100412.84;;;18.3;71.9
63691;BME280;49837;57.280;27.070;2023-07-16T05:24:40;100414.38;;;18.43;71.8
63691;BME280;49837;57.280;27.070;2023-07-16T05:25:47;100412.68;;;18.48;70.48
63691;BME280;49837;57.280;27.070;2023-07-16T05:26:44;100412.05;;;18.5;70.33